Time;durP1;ratioP1;P1;durP2;ratioP2;P2;SDS_P1;SDS_P2;PMS_P1;PMS_P2;Temp;Humidity;BMP_temperature;BMP_pressure;BME280_temperature;BME280_humidity;BME280_pressure;Samples;Min_cycle;Max_cycle;Signal;HPM_P1;HPM_P2
2022/05/10 00:00:12;;;;;;;7.38;3.53;;;15.70;99.90;;;;;;5073271;28;20203;-75
2022/05/10 00:02:37;;;;;;;11.45;4.25;;;15.70;99.90;;;;;;5078469;28;20225;-75
2022/05/10 00:05:04;;;;;;;9.00;3.35;;;15.70;99.90;;;;;;5079272;28;20663;-75
2022/05/10 00:07:33;;;;;;;6.75;3.75;;;15.70;99.90;;;;;;5073088;28;20436;-75
2022/05/10 00:09:59;;;;;;;7.65;4.10;;;15.60;99.90;;;;;;5072925;28;20282;-75
2022/05/10 00:12:25;;;;;;;7.35;3.92;;;15.60;99.90;;;;;;5082221;28;20636;-75
2022/05/10 00:14:51;;;;;;;7.75;3.85;;;15.60;99.90;;;;;;5080879;28;20187;-75
2022/05/10 00:17:25;;;;;;;7.45;4.20;;;15.60;99.90;;;;;;5073566;28;20218;-76
2022/05/10 00:19:51;;;;;;;7.68;3.97;;;15.60;99.90;;;;;;5065197;28;20218;-75
2022/05/10 00:22:16;;;;;;;8.27;4.40;;;15.50;99.90;;;;;;5073056;28;20203;-76
2022/05/10 00:24:42;;;;;;;5.05;3.35;;;15.60;99.90;;;;;;5066095;28;20214;-74
2022/05/10 00:27:07;;;;;;;6.13;3.50;;;15.50;99.90;;;;;;5068420;28;20215;-75
2022/05/10 00:29:33;;;;;;;7.28;3.75;;;15.50;99.90;;;;;;5072395;28;20699;-76
2022/05/10 00:31:58;;;;;;;6.82;3.42;;;15.50;99.90;;;;;;5075159;28;20199;-75
2022/05/10 00:34:28;;;;;;;6.57;4.00;;;15.40;99.90;;;;;;5055231;28;20203;-75
2022/05/10 00:36:54;;;;;;;7.22;3.72;;;15.40;99.90;;;;;;5066394;28;20202;-75
2022/05/10 00:39:19;;;;;;;8.95;3.85;;;15.30;99.90;;;;;;5076058;28;20210;-76
2022/05/10 00:42:07;;;;;;;9.82;3.67;;;15.30;99.90;;;;;;5076091;28;20186;-75
2022/05/10 00:44:40;;;;;;;10.80;4.15;;;15.30;99.90;;;;;;5074828;28;20210;-75
2022/05/10 00:47:17;;;;;;;11.68;4.18;;;15.20;99.90;;;;;;5078915;28;20210;-75
2022/05/10 00:50:02;;;;;;;6.53;3.58;;;15.20;99.90;;;;;;5072623;28;20287;-75
2022/05/10 00:52:54;;;;;;;6.90;3.78;;;15.10;99.90;;;;;;5080900;28;20638;-76
2022/05/10 00:55:28;;;;;;;7.35;4.07;;;15.10;99.90;;;;;;5072377;28;20203;-75
2022/05/10 00:58:18;;;;;;;11.82;4.10;;;15.00;99.90;;;;;;5072093;28;20699;-75
2022/05/10 01:00:45;;;;;;;6.13;3.70;;;15.00;99.90;;;;;;5054171;28;20203;-75
2022/05/10 01:03:23;;;;;;;7.50;4.03;;;15.00;99.90;;;;;;5072080;28;20687;-75
2022/05/10 01:06:08;;;;;;;8.30;4.28;;;15.00;99.90;;;;;;5046404;28;20248;-75
2022/05/10 01:08:45;;;;;;;7.65;4.07;;;15.00;99.90;;;;;;5070616;28;20243;-75
2022/05/10 01:11:16;;;;;;;5.63;4.00;;;15.00;99.90;;;;;;5054350;28;20215;-75
2022/05/10 01:13:48;;;;;;;8.32;3.85;;;14.90;99.90;;;;;;5072113;28;20214;-76
2022/05/10 01:16:20;;;;;;;9.45;4.07;;;14.90;99.90;;;;;;5080342;28;20253;-75
2022/05/10 01:18:47;;;;;;;9.13;4.47;;;14.90;99.90;;;;;;5053396;28;20213;-75
2022/05/10 01:21:31;;;;;;;6.53;4.18;;;14.90;99.90;;;;;;5079223;28;20285;-75
2022/05/10 01:24:21;;;;;;;6.95;4.30;;;14.80;99.90;;;;;;5047214;28;20658;-75
2022/05/10 01:27:10;;;;;;;6.10;3.92;;;14.70;99.90;;;;;;5053951;28;20702;-75
2022/05/10 01:29:42;;;;;;;6.87;4.00;;;14.70;99.90;;;;;;5056023;28;20179;-75
2022/05/10 01:35:03;;;;;;;7.30;4.03;;;14.70;99.90;;;;;;5071726;28;20269;-75
2022/05/10 01:37:32;;;;;;;7.40;4.13;;;14.60;99.90;;;;;;5053085;28;20217;-75
2022/05/10 01:40:12;;;;;;;10.50;4.37;;;14.50;99.90;;;;;;5057799;28;20213;-76
2022/05/10 01:42:45;;;;;;;9.30;4.10;;;14.50;99.90;;;;;;5072549;28;20718;-75
2022/05/10 01:45:21;;;;;;;12.77;4.60;;;14.50;99.90;;;;;;5053531;28;20267;-76
2022/05/10 01:47:55;;;;;;;9.03;4.43;;;14.50;99.90;;;;;;5062324;28;20198;-75
2022/05/10 01:50:36;;;;;;;5.03;4.10;;;14.40;99.90;;;;;;5080075;28;20166;-74
2022/05/10 01:53:19;;;;;;;9.23;4.27;;;14.40;99.90;;;;;;5085654;28;20231;-75
2022/05/10 01:55:51;;;;;;;6.53;4.33;;;14.30;99.90;;;;;;5065084;28;20202;-76
2022/05/10 01:58:22;;;;;;;12.63;4.20;;;14.40;99.90;;;;;;5064765;28;20839;-75
2022/05/10 02:00:55;;;;;;;7.30;4.23;;;14.30;99.90;;;;;;5063328;28;20309;-76
2022/05/10 02:03:34;;;;;;;6.60;4.40;;;14.20;99.90;;;;;;5087986;28;20301;-76
2022/05/10 02:06:08;;;;;;;10.87;4.33;;;14.30;99.90;;;;;;5073784;28;20190;-75
2022/05/10 02:08:46;;;;;;;6.10;4.00;;;14.20;99.90;;;;;;5053642;28;20255;-75
2022/05/10 02:11:15;;;;;;;6.17;4.50;;;14.10;99.90;;;;;;5062525;28;20694;-76
2022/05/10 02:13:52;;;;;;;12.10;4.47;;;14.20;99.90;;;;;;5093521;28;20229;-77
2022/05/10 02:16:35;;;;;;;7.80;4.57;;;14.10;99.90;;;;;;5089650;28;20218;-75
2022/05/10 02:19:24;;;;;;;7.43;4.30;;;14.00;99.90;;;;;;5065707;28;20253;-75
2022/05/10 02:22:05;;;;;;;5.67;4.17;;;14.00;99.90;;;;;;5071738;28;20203;-75
2022/05/10 02:24:36;;;;;;;8.47;4.03;;;14.00;99.90;;;;;;5052843;28;20651;-75
2022/05/10 02:27:07;;;;;;;8.03;4.43;;;14.00;99.90;;;;;;5058347;28;20230;-75
2022/05/10 02:29:45;;;;;;;10.20;4.47;;;14.00;99.90;;;;;;5080906;28;20228;-75
2022/05/10 02:35:11;;;;;;;8.20;4.47;;;13.90;99.90;;;;;;5065730;28;20242;-75
2022/05/10 02:37:36;;;;;;;8.60;4.50;;;13.90;99.90;;;;;;5070193;28;20294;-76
2022/05/10 02:40:04;;;;;;;11.47;4.40;;;13.80;99.90;;;;;;5075850;28;20198;-76
2022/05/10 02:42:30;;;;;;;12.90;4.70;;;13.90;99.90;;;;;;5066049;28;20768;-76
2022/05/10 02:44:56;;;;;;;10.60;4.97;;;13.80;99.90;;;;;;5069577;28;20203;-75
2022/05/10 02:47:32;;;;;;;8.33;4.37;;;13.80;99.90;;;;;;5070844;28;20249;-75
2022/05/10 02:49:58;;;;;;;10.50;4.60;;;13.80;99.90;;;;;;5071983;28;20233;-75
2022/05/10 02:52:24;;;;;;;8.43;4.20;;;13.80;99.90;;;;;;5073633;28;20225;-75
2022/05/10 02:55:02;;;;;;;9.20;4.93;;;13.80;99.90;;;;;;5078139;28;20689;-76
2022/05/10 02:57:29;;;;;;;9.43;5.47;;;13.70;99.90;;;;;;5051878;28;20214;-75
2022/05/10 02:59:59;;;;;;;9.17;4.47;;;13.70;99.90;;;;;;5078430;28;20171;-75
2022/05/10 03:02:31;;;;;;;9.00;5.07;;;13.70;99.90;;;;;;5061815;28;20544;-75
2022/05/10 03:04:58;;;;;;;8.90;4.20;;;13.60;99.90;;;;;;5082082;28;20218;-76
2022/05/10 03:07:25;;;;;;;9.20;4.33;;;13.60;99.90;;;;;;5073186;28;20238;-75
2022/05/10 03:09:50;;;;;;;7.70;4.23;;;13.60;99.90;;;;;;5078166;28;20214;-76
2022/05/10 03:12:16;;;;;;;8.50;4.87;;;13.50;99.90;;;;;;5068248;28;20202;-75
2022/05/10 03:14:42;;;;;;;6.87;4.53;;;13.60;99.90;;;;;;5069889;28;20203;-76
2022/05/10 03:17:10;;;;;;;7.63;5.07;;;13.50;99.90;;;;;;5077391;28;20225;-75
2022/05/10 03:19:37;;;;;;;7.00;4.90;;;13.60;99.90;;;;;;5070985;28;20368;-75
2022/05/10 03:22:04;;;;;;;10.30;4.93;;;13.60;99.90;;;;;;5066371;28;20206;-75
2022/05/10 03:24:30;;;;;;;10.70;5.27;;;13.60;99.90;;;;;;5070948;28;20226;-75
2022/05/10 03:26:56;;;;;;;11.40;5.43;;;13.70;99.90;;;;;;5085510;28;20271;-76
2022/05/10 03:29:21;;;;;;;8.73;4.90;;;13.70;99.90;;;;;;5052667;28;20271;-74
2022/05/10 03:31:47;;;;;;;8.07;5.00;;;13.70;99.90;;;;;;5070259;28;20210;-76
2022/05/10 03:36:57;;;;;;;11.83;4.83;;;13.70;99.90;;;;;;5063500;28;20711;-75
2022/05/10 03:39:22;;;;;;;6.93;5.07;;;13.80;99.90;;;;;;5077830;28;20198;-76
2022/05/10 03:41:48;;;;;;;7.57;4.63;;;13.80;99.90;;;;;;5070031;28;20244;-75
2022/05/10 03:44:14;;;;;;;11.10;4.83;;;13.90;99.90;;;;;;5070773;28;20730;-76
2022/05/10 03:46:39;;;;;;;8.97;5.37;;;14.00;99.90;;;;;;5070098;28;20207;-76
2022/05/10 03:49:05;;;;;;;7.30;4.63;;;14.00;99.90;;;;;;5060153;28;20203;-76
2022/05/10 03:51:31;;;;;;;9.87;5.57;;;14.10;99.90;;;;;;5071268;28;20207;-75
2022/05/10 03:53:57;;;;;;;9.90;4.90;;;14.20;99.90;;;;;;5085481;28;20540;-76
2022/05/10 03:56:23;;;;;;;7.77;4.00;;;15.00;99.90;;;;;;5070166;28;20206;-76
2022/05/10 03:58:49;;;;;;;6.03;4.40;;;16.10;99.90;;;;;;5069456;28;20207;-75
2022/05/10 04:01:18;;;;;;;9.30;5.07;;;16.80;99.90;;;;;;5060077;28;20302;-75
2022/05/10 04:03:43;;;;;;;7.85;4.30;;;17.00;99.90;;;;;;5052360;28;20211;-76
2022/05/10 04:06:09;;;;;;;7.75;4.70;;;17.60;99.90;;;;;;5081659;28;20265;-76
2022/05/10 04:08:34;;;;;;;8.30;5.00;;;18.20;99.90;;;;;;5063215;28;20182;-75
2022/05/10 04:11:08;;;;;;;7.78;4.55;;;18.80;99.90;;;;;;5081638;28;20222;-76
2022/05/10 04:13:34;;;;;;;10.27;5.03;;;19.20;99.90;;;;;;5070236;28;20692;-76
2022/05/10 04:16:00;;;;;;;10.13;4.53;;;19.60;99.90;;;;;;5073013;28;20215;-74
2022/05/10 04:18:26;;;;;;;10.23;4.75;;;19.80;99.90;;;;;;5054419;28;20217;-74
2022/05/10 04:20:53;;;;;;;11.60;5.10;;;19.70;99.90;;;;;;5072868;28;20179;-74
2022/05/10 04:23:18;;;;;;;21.60;17.27;;;19.60;99.90;;;;;;5073289;28;20258;-74
2022/05/10 04:25:44;;;;;;;10.48;5.00;;;18.50;99.90;;;;;;5072613;28;20310;-74
2022/05/10 04:28:10;;;;;;;7.20;4.82;;;17.20;99.90;;;;;;5072368;28;20751;-74
2022/05/10 04:30:36;;;;;;;8.05;5.18;;;16.70;99.90;;;;;;5079999;28;20233;-74
2022/05/10 04:33:02;;;;;;;7.82;4.47;;;16.70;99.90;;;;;;5072627;28;20215;-74
2022/05/10 04:35:27;;;;;;;8.63;5.40;;;17.10;99.90;;;;;;5072978;28;20187;-74
2022/05/10 04:37:53;;;;;;;10.57;5.10;;;19.00;99.90;;;;;;5072265;28;20306;-74
2022/05/10 04:43:05;;;;;;;8.80;4.82;;;21.30;99.90;;;;;;5065098;28;20221;-74
2022/05/10 04:45:34;;;;;;;8.75;4.85;;;22.20;99.90;;;;;;5072432;28;20229;-74
2022/05/10 04:48:00;;;;;;;8.27;5.13;;;22.50;99.10;;;;;;5071893;28;20183;-74
2022/05/10 04:50:26;;;;;;;11.77;5.55;;;23.20;97.60;;;;;;5080949;28;20555;-75
2022/05/10 04:52:51;;;;;;;8.57;5.00;;;23.20;96.50;;;;;;5054796;28;20695;-76
2022/05/10 04:55:18;;;;;;;8.30;4.90;;;23.20;95.60;;;;;;5072639;28;20276;-76
2022/05/10 04:57:44;;;;;;;7.40;4.80;;;24.10;94.50;;;;;;5070635;28;20719;-75
2022/05/10 05:00:12;;;;;;;8.02;5.32;;;23.80;94.00;;;;;;5061283;28;20306;-75
2022/05/10 05:02:38;;;;;;;8.02;4.97;;;24.30;93.40;;;;;;5073986;28;20655;-75
2022/05/10 05:05:04;;;;;;;8.77;4.80;;;23.80;92.80;;;;;;5072577;28;20268;-75
2022/05/10 05:07:30;;;;;;;10.80;5.15;;;24.60;92.50;;;;;;5072016;28;20337;-76
2022/05/10 05:09:55;;;;;;;9.90;5.50;;;24.50;91.80;;;;;;5054109;28;20237;-75
2022/05/10 05:12:22;;;;;;;10.25;5.10;;;24.10;91.90;;;;;;5054367;28;20769;-75
2022/05/10 05:14:47;;;;;;;10.57;4.70;;;24.70;91.00;;;;;;5054118;28;20221;-75
2022/05/10 05:17:13;;;;;;;11.15;5.45;;;25.80;90.50;;;;;;5074193;23;20728;-71
2022/05/10 05:19:38;;;;;;;10.45;5.68;;;25.40;89.60;;;;;;5036668;28;20213;-70
2022/05/10 05:22:04;;;;;;;7.45;4.95;;;25.70;90.20;;;;;;5037206;28;20200;-73
2022/05/10 05:24:29;;;;;;;8.15;5.05;;;25.30;89.70;;;;;;5037187;28;20248;-73
2022/05/10 05:26:55;;;;;;;9.13;4.95;;;25.00;89.80;;;;;;5036924;28;20203;-72
2022/05/10 05:29:21;;;;;;;8.48;5.07;;;24.70;90.20;;;;;;5019353;28;20720;-72
2022/05/10 05:31:48;;;;;;;10.70;5.55;;;25.20;89.30;;;;;;5037275;28;20208;-72
2022/05/10 05:34:14;;;;;;;9.73;5.18;;;25.10;90.30;;;;;;5018973;28;20196;-72
2022/05/10 05:36:39;;;;;;;12.80;5.38;;;25.60;88.60;;;;;;5036771;28;20211;-72
2022/05/10 05:39:04;;;;;;;7.72;4.68;;;25.20;88.30;;;;;;5018602;28;20279;-72
2022/05/10 05:41:30;;;;;;;7.60;4.53;;;25.00;88.20;;;;;;5036247;28;20710;-72
2022/05/10 05:43:55;;;;;;;9.50;5.47;;;25.50;88.00;;;;;;5036684;28;20212;-72
2022/05/10 05:46:21;;;;;;;11.20;5.30;;;23.90;89.70;;;;;;5035835;28;20208;-71
2022/05/10 05:48:46;;;;;;;9.60;5.15;;;24.20;90.20;;;;;;5035629;28;20278;-71
2022/05/10 05:51:12;;;;;;;6.55;4.78;;;24.50;89.60;;;;;;5018509;28;20211;-72
2022/05/10 05:53:38;;;;;;;9.98;5.50;;;24.70;89.60;;;;;;5036436;28;20180;-72
2022/05/10 05:56:08;;;;;;;12.70;5.00;;;24.50;89.30;;;;;;5018723;28;20211;-71
2022/05/10 05:58:35;;;;;;;10.20;5.15;;;23.60;90.40;;;;;;5035199;28;20286;-72
2022/05/10 06:01:01;;;;;;;10.70;5.07;;;23.50;91.10;;;;;;5038118;28;20216;-72
2022/05/10 06:03:26;;;;;;;9.85;4.78;;;23.90;90.60;;;;;;5017627;28;20214;-72
2022/05/10 06:05:52;;;;;;;9.20;5.28;;;24.90;90.00;;;;;;5018096;28;20252;-72
2022/05/10 06:08:19;;;;;;;9.10;4.80;;;26.60;86.50;;;;;;5035729;28;20196;-72
2022/05/10 06:10:49;;;;;;;11.65;5.30;;;26.90;84.30;;;;;;5035405;28;20705;-72
2022/05/10 06:13:18;;;;;;;9.45;5.10;;;26.00;84.80;;;;;;5035608;28;20208;-72
2022/05/10 06:15:44;;;;;;;10.38;4.88;;;25.40;86.10;;;;;;5035647;28;20716;-72
2022/05/10 06:18:10;;;;;;;11.88;5.65;;;25.60;86.20;;;;;;5034499;28;20223;-72
2022/05/10 06:20:35;;;;;;;9.40;4.90;;;25.50;85.80;;;;;;5035826;28;20179;-72
2022/05/10 06:23:01;;;;;;;13.98;5.35;;;26.60;85.30;;;;;;5035117;28;20216;-72
2022/05/10 06:25:28;;;;;;;17.35;6.35;;;25.20;85.90;;;;;;5017727;28;20610;-72
2022/05/10 06:27:55;;;;;;;8.18;5.22;;;25.10;86.20;;;;;;5034421;28;20271;-72
2022/05/10 06:30:22;;;;;;;11.60;4.80;;;25.70;86.70;;;;;;5035909;28;20266;-71
2022/05/10 06:32:49;;;;;;;10.82;5.50;;;26.30;85.80;;;;;;5035589;28;20569;-72
2022/05/10 06:35:16;;;;;;;11.90;8.50;;;27.00;82.80;;;;;;5036358;28;20226;-72
2022/05/10 06:40:26;;;;;;;10.38;5.45;;;26.90;82.10;;;;;;5035227;28;20203;-72
2022/05/10 06:42:51;;;;;;;10.98;5.22;;;26.70;82.70;;;;;;5034995;28;20203;-72
2022/05/10 06:45:19;;;;;;;13.98;4.90;;;25.50;83.50;;;;;;5036302;28;20240;-72
2022/05/10 06:47:47;;;;;;;7.10;5.25;;;24.70;86.80;;;;;;5016809;28;20279;-71
2022/05/10 06:50:15;;;;;;;9.80;5.28;;;25.00;87.10;;;;;;5016904;28;20552;-72
2022/05/10 06:52:41;;;;;;;9.18;5.45;;;24.90;87.50;;;;;;5016899;28;20891;-72
2022/05/10 06:55:08;;;;;;;11.98;5.05;;;25.20;87.20;;;;;;5034418;28;20210;-72
2022/05/10 06:57:34;;;;;;;12.18;5.35;;;25.40;86.90;;;;;;5016342;28;20224;-72
2022/05/10 07:00:00;;;;;;;10.00;5.63;;;25.80;86.50;;;;;;5033607;28;20230;-72
2022/05/10 07:02:25;;;;;;;11.73;5.57;;;25.90;87.00;;;;;;5017775;28;20629;-72
2022/05/10 07:04:52;;;;;;;8.25;5.35;;;25.60;87.40;;;;;;5034369;28;20216;-72
2022/05/10 07:07:18;;;;;;;10.55;5.38;;;25.90;86.30;;;;;;5017384;28;20204;-72
2022/05/10 07:09:44;;;;;;;10.75;5.60;;;24.80;87.70;;;;;;5015976;28;20204;-72
2022/05/10 07:12:10;;;;;;;13.40;5.72;;;26.10;87.90;;;;;;5016988;28;20267;-72
2022/05/10 07:14:35;;;;;;;8.85;4.90;;;26.20;85.50;;;;;;5035159;28;20633;-73
2022/05/10 07:17:01;;;;;;;10.15;5.45;;;26.70;85.20;;;;;;5034818;28;20311;-73
2022/05/10 07:19:26;;;;;;;12.10;5.20;;;27.70;83.40;;;;;;5033737;28;20740;-72
2022/05/10 07:21:51;;;;;;;16.90;5.07;;;29.50;81.10;;;;;;5016863;28;20204;-71
2022/05/10 07:24:19;;;;;;;9.57;6.25;;;28.20;79.80;;;;;;5034358;28;20697;-72
2022/05/10 07:26:45;;;;;;;13.55;5.47;;;28.10;79.80;;;;;;5034314;28;20188;-71
2022/05/10 07:29:12;;;;;;;8.85;5.18;;;28.10;80.50;;;;;;5033903;28;20180;-72
2022/05/10 07:31:38;;;;;;;6.30;5.00;;;28.60;79.50;;;;;;5034711;28;20215;-72
2022/05/10 07:34:04;;;;;;;12.38;4.78;;;28.70;79.80;;;;;;5034628;28;20204;-72
2022/05/10 07:36:33;;;;;;;11.40;4.63;;;29.40;78.90;;;;;;5035774;28;20226;-72
2022/05/10 07:39:04;;;;;;;7.40;4.20;;;30.00;77.30;;;;;;5035720;28;20173;-72
2022/05/10 07:41:29;;;;;;;10.00;5.07;;;29.20;77.50;;;;;;5039456;28;20211;-72
2022/05/10 07:43:56;;;;;;;13.82;4.85;;;29.40;77.80;;;;;;5038564;28;20207;-72
2022/05/10 07:46:22;;;;;;;9.40;4.40;;;29.80;76.00;;;;;;5037924;28;20201;-72
2022/05/10 07:48:47;;;;;;;13.23;5.13;;;27.40;77.90;;;;;;5037444;28;20212;-72
2022/05/10 07:51:13;;;;;;;9.02;4.63;;;27.80;80.10;;;;;;5025644;28;20212;-72
2022/05/10 07:53:41;;;;;;;9.77;4.60;;;28.10;79.50;;;;;;5043195;28;20203;-73
2022/05/10 07:56:06;;;;;;;11.38;5.90;;;28.20;79.10;;;;;;5024196;28;20224;-72
2022/05/10 07:58:32;;;;;;;8.15;3.95;;;28.60;78.80;;;;;;5040306;28;20212;-72
2022/05/10 08:00:59;;;;;;;8.82;5.00;;;28.80;77.90;;;;;;5022633;28;20207;-72
2022/05/10 08:03:26;;;;;;;7.65;4.80;;;28.70;78.50;;;;;;5040334;28;20218;-72
2022/05/10 08:05:54;;;;;;;9.25;4.65;;;29.50;77.70;;;;;;5040201;28;20188;-72
2022/05/10 08:08:20;;;;;;;10.40;4.28;;;28.60;76.40;;;;;;5039440;28;20225;-71
2022/05/10 08:10:48;;;;;;;10.38;5.05;;;27.80;79.30;;;;;;5037812;28;20200;-72
2022/05/10 08:13:17;;;;;;;10.82;4.60;;;27.50;80.10;;;;;;5038144;28;20212;-71
2022/05/10 08:15:44;;;;;;;9.60;5.53;;;27.70;79.80;;;;;;5037466;28;20719;-72
2022/05/10 08:18:11;;;;;;;8.98;4.40;;;28.60;78.60;;;;;;5036099;28;20728;-71
2022/05/10 08:20:37;;;;;;;8.88;4.40;;;28.50;76.80;;;;;;5020277;28;20185;-71
2022/05/10 08:23:04;;;;;;;10.30;4.90;;;27.90;77.80;;;;;;5019293;28;20201;-72
2022/05/10 08:25:29;;;;;;;8.70;4.40;;;28.60;78.10;;;;;;5036450;28;20218;-72
2022/05/10 08:27:55;;;;;;;7.07;4.10;;;29.40;75.90;;;;;;5018515;28;20291;-71
2022/05/10 08:30:21;;;;;;;14.88;5.85;;;29.40;76.00;;;;;;5037089;28;20212;-71
2022/05/10 08:32:46;;;;;;;9.00;4.18;;;29.40;75.90;;;;;;5019912;28;20179;-71
2022/05/10 08:35:11;;;;;;;7.80;4.25;;;29.30;75.30;;;;;;5038025;28;20181;-72
2022/05/10 08:37:37;;;;;;;8.32;4.10;;;28.20;75.60;;;;;;5037508;28;20693;-71
2022/05/10 08:40:05;;;;;;;7.00;4.05;;;27.90;77.20;;;;;;5036696;28;20211;-72
2022/05/10 08:42:34;;;;;;;12.38;4.22;;;28.30;77.10;;;;;;5037177;28;20696;-72
2022/05/10 08:45:09;;;;;;;5.72;3.90;;;28.30;77.90;;;;;;5020393;28;20192;-72
2022/05/10 08:47:36;;;;;;;8.80;3.97;;;28.50;77.40;;;;;;5040400;28;20749;-72
2022/05/10 08:50:08;;;;;;;6.75;4.10;;;28.60;76.50;;;;;;5039565;28;20312;-72
2022/05/10 08:52:39;;;;;;;8.65;4.13;;;29.50;77.70;;;;;;5037312;28;20215;-71
2022/05/10 08:55:08;;;;;;;8.68;3.70;;;30.60;74.90;;;;;;5037118;28;20247;-71
2022/05/10 08:57:45;;;;;;;9.43;4.10;;;29.70;71.70;;;;;;5036179;28;20688;-72
2022/05/10 09:00:55;;;;;;;10.27;3.67;;;29.10;74.50;;;;;;5036031;28;20212;-72
2022/05/10 09:03:36;;;;;;;7.82;3.83;;;29.20;72.50;;;;;;4940226;28;20619;-72
2022/05/10 09:06:11;;;;;;;14.65;4.07;;;29.30;73.90;;;;;;4956959;28;20683;-73
2022/05/10 09:08:59;;;;;;;7.25;3.10;;;29.20;73.10;;;;;;5006448;28;20188;-73
2022/05/10 09:11:28;;;;;;;6.90;2.92;;;28.80;73.40;;;;;;5019146;28;20200;-72
2022/05/10 09:13:55;;;;;;;6.18;3.13;;;28.00;74.20;;;;;;5035937;28;20291;-72
2022/05/10 09:16:21;;;;;;;5.65;2.95;;;28.40;75.80;;;;;;5036258;28;20658;-72
2022/05/10 09:18:51;;;;;;;6.78;3.00;;;27.50;75.30;;;;;;5035535;28;20218;-72
2022/05/10 09:21:23;;;;;;;9.20;3.63;;;27.60;75.80;;;;;;5018619;28;20239;-72
2022/05/10 09:24:17;;;;;;;8.95;3.50;;;27.20;76.40;;;;;;5036523;28;20255;-73
2022/05/10 09:26:47;;;;;;;7.57;3.58;;;26.70;77.00;;;;;;5018797;28;20192;-73
2022/05/10 09:29:27;;;;;;;6.93;3.58;;;26.70;76.40;;;;;;5036569;28;20255;-72
2022/05/10 09:34:46;;;;;;;10.77;4.05;;;26.90;78.60;;;;;;5036435;28;20214;-72
2022/05/10 09:37:25;;;;;;;5.45;3.10;;;27.00;78.70;;;;;;5036779;28;20258;-71
2022/05/10 09:39:57;;;;;;;6.22;3.20;;;26.60;77.90;;;;;;5017567;28;20655;-72
2022/05/10 09:42:35;;;;;;;9.88;3.05;;;26.70;79.00;;;;;;5018833;28;20634;-71
2022/05/10 09:45:03;;;;;;;6.03;3.00;;;26.90;79.20;;;;;;5018993;28;20196;-71
2022/05/10 09:47:29;;;;;;;9.02;3.35;;;26.80;78.90;;;;;;5018387;28;20196;-71
2022/05/10 09:50:14;;;;;;;5.28;3.10;;;26.70;78.80;;;;;;5035773;28;20284;-72
2022/05/10 09:52:40;;;;;;;8.15;2.70;;;26.60;79.30;;;;;;5036260;28;20288;-72
2022/05/10 09:55:26;;;;;;;7.30;2.85;;;26.40;79.20;;;;;;5036714;28;20760;-71
2022/05/10 09:57:54;;;;;;;6.03;3.08;;;26.30;79.70;;;;;;5022768;28;20238;-71
2022/05/10 10:00:39;;;;;;;8.40;3.03;;;26.50;80.10;;;;;;5038935;28;20231;-71
2022/05/10 10:03:05;;;;;;;5.78;3.00;;;26.90;79.80;;;;;;5037006;28;20215;-72
2022/05/10 10:05:32;;;;;;;6.68;3.20;;;27.10;78.40;;;;;;5038108;28;20610;-72
2022/05/10 10:07:58;;;;;;;5.70;2.85;;;26.70;79.10;;;;;;5034853;28;20215;-72
2022/05/10 10:10:32;;;;;;;6.68;3.00;;;26.50;79.50;;;;;;5035415;28;20599;-72
2022/05/10 10:12:59;;;;;;;8.10;3.13;;;26.30;79.40;;;;;;5035039;28;20266;-72
2022/05/10 10:15:37;;;;;;;7.43;3.45;;;27.00;79.60;;;;;;5017383;28;20227;-72
2022/05/10 10:18:09;;;;;;;6.32;3.72;;;27.60;79.00;;;;;;5034607;28;20220;-72
2022/05/10 10:20:34;;;;;;;6.40;2.67;;;28.10;78.60;;;;;;5036001;28;20721;-73
2022/05/10 10:23:04;;;;;;;5.95;2.95;;;27.80;77.70;;;;;;5017769;28;20224;-72
2022/05/10 10:25:42;;;;;;;4.35;2.90;;;27.60;78.20;;;;;;5016962;28;20224;-72
2022/05/10 10:28:15;;;;;;;6.50;2.92;;;28.10;78.70;;;;;;5034411;28;20211;-72
2022/05/10 10:30:53;;;;;;;6.35;3.58;;;27.50;79.40;;;;;;5017876;28;20286;-72
2022/05/10 10:33:30;;;;;;;5.38;2.92;;;27.60;79.50;;;;;;5034895;28;20219;-72
2022/05/10 10:36:05;;;;;;;7.70;3.88;;;27.30;79.60;;;;;;5017515;28;20263;-72
2022/05/10 10:39:01;;;;;;;5.40;3.30;;;27.10;79.60;;;;;;5034645;28;20283;-72
2022/05/10 10:41:38;;;;;;;7.55;3.50;;;26.90;81.30;;;;;;5035401;28;20616;-72
2022/05/10 10:44:14;;;;;;;6.80;3.28;;;27.20;82.00;;;;;;5034545;28;20212;-72
2022/05/10 10:47:20;;;;;;;6.85;3.20;;;27.30;81.10;;;;;;5034867;28;20716;-72
2022/05/10 10:49:54;;;;;;;6.00;2.92;;;27.40;81.80;;;;;;4968915;28;20211;-73
2022/05/10 10:52:20;;;;;;;7.85;4.13;;;28.00;81.70;;;;;;5035400;28;20292;-73
2022/05/10 10:54:46;;;;;;;7.75;3.13;;;27.10;81.80;;;;;;5035001;28;20211;-73
2022/05/10 10:57:20;;;;;;;4.35;3.08;;;26.60;82.30;;;;;;5034861;28;20248;-73
2022/05/10 11:00:05;;;;;;;5.47;3.08;;;26.70;82.40;;;;;;5016633;28;20644;-73
2022/05/10 11:02:58;;;;;;;7.15;3.38;;;27.00;81.90;;;;;;5035672;28;20202;-72
2022/05/10 11:06:01;;;;;;;5.97;2.65;;;26.90;82.10;;;;;;5035292;28;20910;-73
2022/05/10 11:08:38;;;;;;;5.57;3.15;;;26.40;82.70;;;;;;5033931;28;20290;-73
2022/05/10 11:11:11;;;;;;;3.53;2.53;;;26.50;83.40;;;;;;5033958;28;20759;-72
2022/05/10 11:13:51;;;;;;;4.85;3.20;;;26.70;83.40;;;;;;5036614;28;20235;-72
2022/05/10 11:16:50;;;;;;;6.40;2.78;;;26.60;83.40;;;;;;5020723;28;20211;-73
2022/05/10 11:19:40;;;;;;;6.57;3.60;;;26.30;83.60;;;;;;5064258;23;20637;-74
2022/05/10 11:22:09;;;;;;;3.88;2.70;;;26.50;83.90;;;;;;5054271;28;20215;-73
2022/05/10 11:24:53;;;;;;;6.90;3.33;;;26.40;83.40;;;;;;5053815;28;20308;-74
2022/05/10 11:27:36;;;;;;;6.68;3.28;;;26.70;84.10;;;;;;5058921;28;20208;-74
2022/05/10 11:30:08;;;;;;;7.28;3.17;;;27.40;83.10;;;;;;5047096;28;20718;-74
2022/05/10 11:32:42;;;;;;;9.50;3.95;;;27.50;82.10;;;;;;5054565;28;20284;-75
2022/05/10 11:35:33;;;;;;;6.20;3.53;;;27.30;82.40;;;;;;5054113;28;20277;-75
2022/05/10 11:38:07;;;;;;;5.07;3.30;;;27.20;83.10;;;;;;5053466;28;20252;-74
2022/05/10 11:41:01;;;;;;;7.43;3.80;;;27.30;82.30;;;;;;5053698;28;20294;-74
2022/05/10 11:43:43;;;;;;;6.22;3.65;;;27.60;82.00;;;;;;5053539;28;20254;-74
2022/05/10 11:46:35;;;;;;;7.72;3.60;;;27.70;81.90;;;;;;5053882;28;20234;-74
2022/05/10 11:49:29;;;;;;;4.82;2.47;;;27.80;81.80;;;;;;5032091;28;20761;-74
2022/05/10 11:52:07;;;;;;;4.63;3.22;;;27.20;81.40;;;;;;5053816;28;20204;-74
2022/05/10 11:55:03;;;;;;;6.35;2.90;;;27.80;81.80;;;;;;5053742;28;20211;-74
2022/05/10 11:57:32;;;;;;;3.50;3.15;;;27.80;81.00;;;;;;5053043;28;20211;-74
2022/05/10 12:00:26;;;;;;;5.03;3.17;;;28.00;81.20;;;;;;5052173;28;20712;-75
2022/05/10 12:02:51;;;;;;;4.15;3.13;;;27.70;79.80;;;;;;5038658;28;20267;-73
2022/05/10 12:05:27;;;;;;;3.05;2.75;;;27.90;81.10;;;;;;5048366;28;20337;-74
2022/05/10 12:08:01;;;;;;;4.68;2.65;;;27.90;80.10;;;;;;5056133;28;20230;-76
2022/05/10 12:10:43;;;;;;;7.53;3.20;;;27.80;80.70;;;;;;5052885;28;20214;-74
2022/05/10 12:22:10;;;;;;;4.57;3.08;;;29.10;78.80;;;;;;5053170;28;20211;-73
2022/05/10 12:24:43;;;;;;;8.07;2.95;;;28.60;79.10;;;;;;5033882;28;20247;-73
2022/05/10 12:27:12;;;;;;;3.95;3.00;;;28.70;79.50;;;;;;5052462;28;20217;-74
2022/05/10 12:29:37;;;;;;;7.68;3.50;;;27.90;79.60;;;;;;5052501;28;20191;-74
2022/05/10 12:32:21;;;;;;;5.20;2.92;;;28.10;80.60;;;;;;5052575;28;20562;-74
2022/05/10 12:34:56;;;;;;;4.70;2.83;;;28.00;79.70;;;;;;5052686;28;20192;-76
2022/05/10 12:37:30;;;;;;;5.15;3.10;;;27.60;80.50;;;;;;5052429;28;20280;-72
2022/05/10 12:40:08;;;;;;;4.90;3.33;;;27.60;81.60;;;;;;5033784;28;20203;-74
2022/05/10 12:42:57;;;;;;;5.38;3.30;;;27.90;81.60;;;;;;5034279;28;20211;-72
2022/05/10 12:45:38;;;;;;;5.45;3.45;;;27.90;81.50;;;;;;5051783;28;20712;-72
2022/05/10 12:48:28;;;;;;;7.20;3.30;;;28.10;80.50;;;;;;5051421;28;20687;-72
2022/05/10 12:51:11;;;;;;;3.25;2.95;;;28.20;80.40;;;;;;5052876;28;20608;-73
2022/05/10 12:53:36;;;;;;;5.55;3.25;;;28.20;80.50;;;;;;5052523;28;20237;-73
2022/05/10 12:56:25;;;;;;;4.50;2.90;;;28.30;80.00;;;;;;5054638;28;20214;-71
2022/05/10 12:58:53;;;;;;;9.75;4.40;;;28.30;79.40;;;;;;5033176;28;20226;-74
2022/05/10 13:01:21;;;;;;;6.72;3.53;;;28.70;80.00;;;;;;5034321;28;20215;-73
2022/05/10 13:03:56;;;;;;;5.57;3.78;;;29.00;79.50;;;;;;5052062;28;20719;-73
2022/05/10 13:06:49;;;;;;;4.38;3.20;;;29.20;78.90;;;;;;5052244;28;20214;-73
2022/05/10 13:09:37;;;;;;;5.45;3.30;;;29.30;78.40;;;;;;5051932;28;20207;-74
2022/05/10 13:12:43;;;;;;;6.68;3.17;;;29.10;78.50;;;;;;5052186;28;20202;-70
2022/05/10 13:15:15;;;;;;;6.45;3.25;;;29.00;78.10;;;;;;4971182;28;20381;-72
2022/05/10 13:17:48;;;;;;;3.55;3.15;;;28.30;78.90;;;;;;5023604;28;20235;-73
2022/05/10 13:20:17;;;;;;;3.47;3.17;;;27.90;79.50;;;;;;5034434;28;20726;-74
2022/05/10 13:22:53;;;;;;;6.07;3.40;;;27.70;79.80;;;;;;5051945;28;20203;-73
2022/05/10 13:25:31;;;;;;;3.70;3.00;;;27.80;80.60;;;;;;5051938;28;20219;-76
2022/05/10 13:28:29;;;;;;;7.28;3.40;;;27.20;80.40;;;;;;5051048;28;20229;-74
2022/05/10 13:30:57;;;;;;;5.38;3.72;;;27.00;81.60;;;;;;5007794;28;20200;-74
2022/05/10 13:33:33;;;;;;;6.20;3.38;;;27.10;81.50;;;;;;5051241;28;20208;-73